createdAt,value
2022-10-06T00:02:02.318Z,70.81
2022-10-06T00:04:28.801Z,70.44
2022-10-06T00:06:55.251Z,70.17
2022-10-06T00:09:21.815Z,69.76
2022-10-06T00:11:48.319Z,69.62
2022-10-06T00:14:14.818Z,69.56
2022-10-06T00:16:41.363Z,69.19
2022-10-06T00:19:07.926Z,69.25
2022-10-06T00:21:34.389Z,68.99
2022-10-06T00:24:00.924Z,68.78
2022-10-06T00:26:27.462Z,68.73
2022-10-06T00:28:53.983Z,68.74
2022-10-06T00:31:20.672Z,68.71
2022-10-06T00:33:49.403Z,68.46
2022-10-06T00:36:16.057Z,68.40
2022-10-06T00:38:42.789Z,68.54
2022-10-06T00:41:16.366Z,68.46
2022-10-06T00:43:47.833Z,68.52
2022-10-06T00:46:17.432Z,68.16
2022-10-06T00:48:46.913Z,68.01
2022-10-06T00:51:14.221Z,68.26
2022-10-06T00:53:42.071Z,68.17
2022-10-06T00:56:08.901Z,67.85
2022-10-06T00:58:35.743Z,67.82
2022-10-06T01:01:03.879Z,67.96
2022-10-06T01:03:50.936Z,67.75
2022-10-06T01:06:17.438Z,67.85
2022-10-06T01:08:44.583Z,67.72
2022-10-06T01:11:15.549Z,67.57
2022-10-06T01:13:44.507Z,67.84
2022-10-06T01:16:27.023Z,67.52
2022-10-06T01:18:55.789Z,67.64
2022-10-06T01:21:34.265Z,67.63
2022-10-06T01:24:03.489Z,67.52
2022-10-06T01:26:33.924Z,67.41
2022-10-06T01:29:01.057Z,67.54
2022-10-06T01:31:28.706Z,67.32
2022-10-06T01:33:55.850Z,67.31
2022-10-06T01:36:22.918Z,67.27
2022-10-06T01:38:51.356Z,66.99
2022-10-06T01:41:18.081Z,67.25
2022-10-06T01:43:45.515Z,67.07
2022-10-06T01:46:12.862Z,67.20
2022-10-06T01:48:40.725Z,66.85
2022-10-06T01:51:13.710Z,66.97
2022-10-06T01:53:40.941Z,67.04
2022-10-06T01:56:07.569Z,67.27
2022-10-06T01:58:34.395Z,67.11
2022-10-06T02:01:08.877Z,66.85
2022-10-06T02:03:37.910Z,67.06
2022-10-06T02:06:05.230Z,66.79
2022-10-06T02:08:33.057Z,66.84
2022-10-06T02:11:11.417Z,66.91
2022-10-06T02:13:40.700Z,66.68
2022-10-06T02:16:08.852Z,66.79
2022-10-06T02:18:36.195Z,66.76
2022-10-06T02:21:03.385Z,66.74
2022-10-06T02:23:30.975Z,66.62
2022-10-06T02:26:01.938Z,66.66
2022-10-06T02:28:30.005Z,66.67
2022-10-06T02:31:03.956Z,66.55
2022-10-06T02:33:30.849Z,66.60
2022-10-06T02:35:58.280Z,66.63
2022-10-06T02:38:27.641Z,66.60
2022-10-06T02:40:55.123Z,66.54
2022-10-06T02:43:21.935Z,66.72
2022-10-06T02:45:59.565Z,66.57
2022-10-06T02:48:27.684Z,66.67
2022-10-06T02:51:02.972Z,66.57
2022-10-06T02:53:29.619Z,66.52
2022-10-06T02:56:08.034Z,66.56
2022-10-06T02:58:34.695Z,66.72
2022-10-06T03:01:09.360Z,66.95
2022-10-06T03:03:37.011Z,66.79
2022-10-06T03:06:06.639Z,66.84
2022-10-06T03:08:34.050Z,66.91
2022-10-06T03:11:06.616Z,66.77
2022-10-06T03:13:33.626Z,67.04
2022-10-06T03:16:00.300Z,66.92
2022-10-06T03:18:28.214Z,66.78
2022-10-06T03:21:00.196Z,66.73
2022-10-06T03:23:27.817Z,66.82
2022-10-06T03:25:58.088Z,66.82
2022-10-06T03:28:25.293Z,66.93
2022-10-06T03:30:52.654Z,66.94
2022-10-06T03:33:19.161Z,66.90
2022-10-06T03:35:46.655Z,66.92
2022-10-06T03:38:14.268Z,66.82
2022-10-06T03:40:40.911Z,66.99
2022-10-06T03:43:09.808Z,66.96
2022-10-06T03:45:36.389Z,66.95
2022-10-06T03:48:02.954Z,66.95
2022-10-06T03:50:29.642Z,66.98
2022-10-06T03:52:56.463Z,67.05
2022-10-06T03:55:23.135Z,67.04
2022-10-06T03:57:49.744Z,66.96
2022-10-06T04:00:16.555Z,67.05
2022-10-06T04:02:43.599Z,66.89
2022-10-06T04:05:10.184Z,66.79
2022-10-06T04:07:36.715Z,66.93
2022-10-06T04:10:03.660Z,66.95
2022-10-06T04:12:30.324Z,67.03
2022-10-06T04:15:00.119Z,67.05
2022-10-06T04:17:27.843Z,67.07
2022-10-06T04:19:55.152Z,67.13
2022-10-06T04:22:21.671Z,67.17
2022-10-06T04:24:48.248Z,67.06
2022-10-06T04:27:29.804Z,67.19
2022-10-06T04:30:12.674Z,67.17
2022-10-06T04:32:40.091Z,67.26
2022-10-06T04:35:07.088Z,67.27
2022-10-06T04:37:33.644Z,67.26
2022-10-06T04:40:00.509Z,67.24
2022-10-06T04:42:34.637Z,67.11
2022-10-06T04:45:04.462Z,67.26
2022-10-06T04:47:31.711Z,67.26
2022-10-06T04:49:58.526Z,67.41
2022-10-06T04:52:25.362Z,67.20
2022-10-06T04:54:52.387Z,67.40
2022-10-06T04:57:19.454Z,67.35
2022-10-06T05:00:08.023Z,67.41
2022-10-06T05:02:38.038Z,66.94
2022-10-06T05:05:05.873Z,67.11
2022-10-06T05:07:32.587Z,67.17
2022-10-06T05:09:59.286Z,67.06
2022-10-06T05:12:26.372Z,67.17
2022-10-06T05:14:53.326Z,67.07
2022-10-06T05:17:19.866Z,67.07
2022-10-06T05:19:47.264Z,66.96
2022-10-06T05:22:13.823Z,66.86
2022-10-06T05:24:40.532Z,66.98
2022-10-06T05:27:07.040Z,66.98
2022-10-06T05:29:34.623Z,66.89
2022-10-06T05:32:02.444Z,66.96
2022-10-06T05:34:29.378Z,66.94
2022-10-06T05:36:55.924Z,67.01
2022-10-06T05:39:22.407Z,66.89
2022-10-06T05:41:53.037Z,66.88
2022-10-06T05:44:19.561Z,66.74
2022-10-06T05:46:46.636Z,66.93
2022-10-06T05:49:13.475Z,67.10
2022-10-06T05:51:47.959Z,67.06
2022-10-06T05:54:19.175Z,66.94
2022-10-06T05:56:45.704Z,66.99
2022-10-06T05:59:12.326Z,67.03
2022-10-06T06:01:40.768Z,66.97
2022-10-06T06:04:14.743Z,66.82
2022-10-06T06:06:48.781Z,66.86
2022-10-06T06:09:28.138Z,67.17
2022-10-06T06:12:04.215Z,67.08
2022-10-06T06:15:07.722Z,67.14
2022-10-06T06:17:39.420Z,67.13
2022-10-06T06:20:07.157Z,67.12
2022-10-06T06:22:34.226Z,67.17
2022-10-06T06:25:00.922Z,67.12
2022-10-06T06:27:27.449Z,67.01
2022-10-06T06:29:57.354Z,67.08
2022-10-06T06:32:24.989Z,67.25
2022-10-06T06:34:52.787Z,67.01
2022-10-06T06:37:19.541Z,67.14
2022-10-06T06:39:47.236Z,67.31
2022-10-06T06:42:13.898Z,67.31
2022-10-06T06:45:02.847Z,67.53
2022-10-06T06:47:35.014Z,67.60
2022-10-06T06:50:05.139Z,67.57
2022-10-06T06:52:32.474Z,67.72
2022-10-06T06:54:59.592Z,67.74
2022-10-06T06:57:27.516Z,67.64
2022-10-06T06:59:57.032Z,67.63
2022-10-06T07:02:29.195Z,67.46
2022-10-06T07:04:56.393Z,67.75
2022-10-06T07:07:23.192Z,67.60
2022-10-06T07:09:49.685Z,67.72
2022-10-06T07:12:18.242Z,67.62
2022-10-06T07:15:08.702Z,67.55
2022-10-06T07:17:58.052Z,67.70
2022-10-06T07:20:43.226Z,67.74
2022-10-06T07:23:37.045Z,67.55
2022-10-06T07:26:07.662Z,67.44
2022-10-06T07:28:34.310Z,67.55
2022-10-06T07:31:01.575Z,67.42
2022-10-06T07:33:32.398Z,67.30
2022-10-06T07:36:00.786Z,67.39
2022-10-06T07:38:28.563Z,67.44
2022-10-06T07:41:19.219Z,67.32
2022-10-06T07:43:53.690Z,67.50
2022-10-06T07:46:20.683Z,67.47
2022-10-06T07:48:55.727Z,67.58
2022-10-06T07:51:24.582Z,67.35
2022-10-06T07:53:51.467Z,67.46
2022-10-06T07:56:38.282Z,67.25
2022-10-06T07:59:04.777Z,67.39
2022-10-06T08:01:31.435Z,67.31
2022-10-06T08:03:58.210Z,67.15
2022-10-06T08:06:24.841Z,67.00
2022-10-06T08:08:56.534Z,67.16
2022-10-06T08:11:23.303Z,67.06
2022-10-06T08:13:51.772Z,67.04
2022-10-06T08:16:20.978Z,67.01
2022-10-06T08:18:54.794Z,66.92
2022-10-06T08:21:25.856Z,66.90
2022-10-06T08:23:53.722Z,66.86
2022-10-06T08:26:22.048Z,66.74
2022-10-06T08:28:51.021Z,66.67
2022-10-06T08:31:21.214Z,66.42
2022-10-06T08:33:48.979Z,66.55
2022-10-06T08:36:19.106Z,66.30
2022-10-06T08:38:50.258Z,66.34
2022-10-06T08:41:24.851Z,66.31
2022-10-06T08:44:04.435Z,66.17
2022-10-06T08:46:40.114Z,66.31
2022-10-06T08:49:15.474Z,66.31
2022-10-06T08:51:55.182Z,66.05
2022-10-06T08:54:30.048Z,65.92
2022-10-06T08:57:05.491Z,66.08
2022-10-06T08:59:34.248Z,66.04
2022-10-06T09:02:04.657Z,65.82
2022-10-06T09:04:33.157Z,65.58
2022-10-06T09:07:06.547Z,65.39
2022-10-06T09:10:08.120Z,65.22
2022-10-06T09:12:53.973Z,65.41
2022-10-06T09:15:20.737Z,65.30
2022-10-06T09:18:00.248Z,65.37
2022-10-06T09:20:35.789Z,65.38
2022-10-06T09:23:06.784Z,65.38
2022-10-06T09:25:33.836Z,65.23
2022-10-06T09:28:03.249Z,65.26
2022-10-06T09:30:29.924Z,65.32
2022-10-06T09:33:02.719Z,64.94
2022-10-06T09:35:31.441Z,64.91
2022-10-06T09:38:08.276Z,64.88
2022-10-06T09:40:49.330Z,64.57
2022-10-06T09:43:25.479Z,64.37
2022-10-06T09:46:16.657Z,64.39
2022-10-06T09:48:43.177Z,64.55
2022-10-06T09:51:13.587Z,64.49
2022-10-06T09:53:44.860Z,64.23
2022-10-06T09:56:18.752Z,63.98
2022-10-06T09:58:56.904Z,63.77
2022-10-06T10:01:29.340Z,63.76
2022-10-06T10:04:19.321Z,63.63
2022-10-06T10:06:46.948Z,63.36
2022-10-06T10:09:21.837Z,63.38
2022-10-06T10:12:25.267Z,62.99
2022-10-06T10:14:52.839Z,63.02
2022-10-06T10:17:48.663Z,62.75
2022-10-06T10:20:29.574Z,62.30
2022-10-06T10:22:59.428Z,62.77
2022-10-06T10:25:34.495Z,62.51
2022-10-06T10:28:23.565Z,61.91
2022-10-06T10:31:08.317Z,62.25
2022-10-06T10:33:53.928Z,62.22
2022-10-06T10:36:37.989Z,62.32
2022-10-06T10:39:11.766Z,62.23
2022-10-06T10:41:49.146Z,62.21
2022-10-06T10:44:44.964Z,61.79
2022-10-06T10:47:17.524Z,61.89
2022-10-06T10:49:52.915Z,61.52
2022-10-06T10:52:23.090Z,61.71
2022-10-06T10:55:14.317Z,61.73
2022-10-06T10:57:43.941Z,61.89
2022-10-06T11:00:28.051Z,61.66
2022-10-06T11:03:00.878Z,61.84
2022-10-06T11:05:38.362Z,62.01
2022-10-06T11:08:30.949Z,61.18
2022-10-06T11:11:00.622Z,61.45
2022-10-06T11:13:45.794Z,60.91
2022-10-06T11:16:18.808Z,61.55
2022-10-06T11:19:15.138Z,61.17
2022-10-06T11:22:11.118Z,60.93
2022-10-06T11:24:54.094Z,61.37
2022-10-06T11:27:30.128Z,61.23
2022-10-06T11:30:11.424Z,60.84
2022-10-06T11:33:07.292Z,60.68
2022-10-06T11:35:37.127Z,61.03
2022-10-06T11:38:15.636Z,61.08
2022-10-06T11:40:58.603Z,61.02
2022-10-06T11:43:49.048Z,60.94
2022-10-06T11:46:32.093Z,61.14
2022-10-06T11:49:29.744Z,60.61
2022-10-06T11:52:08.033Z,60.56
2022-10-06T11:54:44.669Z,60.82
2022-10-06T11:57:29.336Z,60.54
2022-10-06T12:00:06.038Z,60.59
2022-10-06T12:02:37.418Z,60.46
2022-10-06T12:05:35.661Z,60.34
2022-10-06T12:07:56.771Z,60.69
2022-10-06T12:10:29.189Z,60.21
2022-10-06T12:14:01.561Z,60.26
2022-10-06T12:19:31.974Z,60.03
2022-10-06T12:22:09.407Z,60.07
2022-10-06T12:25:05.238Z,60.03
2022-10-06T12:27:44.708Z,59.99
2022-10-06T12:30:14.173Z,60.13
2022-10-06T12:32:52.366Z,60.10
2022-10-06T12:35:24.682Z,59.97
2022-10-06T12:37:56.148Z,59.86
2022-10-06T12:40:49.459Z,59.73
2022-10-06T12:43:18.783Z,59.72
2022-10-06T12:46:16.317Z,59.48
2022-10-06T12:49:01.468Z,59.51
2022-10-06T12:54:23.010Z,59.54
2022-10-06T12:57:01.122Z,59.36
2022-10-06T12:59:33.771Z,59.78
2022-10-06T13:02:17.447Z,59.75
2022-10-06T13:05:11.589Z,60.05
2022-10-06T13:08:05.441Z,59.81
2022-10-06T13:10:33.050Z,60.02
2022-10-06T13:13:00.793Z,60.12
2022-10-06T13:15:39.996Z,59.90
2022-10-06T13:18:22.916Z,59.89
2022-10-06T13:20:58.927Z,59.92
2022-10-06T13:23:36.792Z,59.94
2022-10-06T13:26:05.100Z,60.11
2022-10-06T13:28:43.519Z,59.89
2022-10-06T13:31:27.309Z,59.97
2022-10-06T13:34:09.843Z,59.89
2022-10-06T13:36:42.081Z,59.78
2022-10-06T13:39:20.534Z,59.98
2022-10-06T13:41:54.366Z,59.82
2022-10-06T13:44:27.496Z,59.71
2022-10-06T13:46:58.469Z,59.28
2022-10-06T13:49:29.946Z,59.37
2022-10-06T13:52:00.303Z,59.34
2022-10-06T13:54:42.045Z,59.15
2022-10-06T13:57:47.370Z,59.40
2022-10-06T14:00:34.504Z,59.24
2022-10-06T14:03:10.253Z,58.84
2022-10-06T14:05:41.811Z,59.21
2022-10-06T14:08:11.055Z,59.36
2022-10-06T14:10:40.555Z,59.11
2022-10-06T14:13:20.831Z,58.88
2022-10-06T14:15:56.373Z,58.73
2022-10-06T14:18:25.319Z,59.09
2022-10-06T14:20:57.066Z,58.95
2022-10-06T14:23:33.804Z,58.88
2022-10-06T14:26:00.832Z,58.95
2022-10-06T14:28:27.420Z,58.92
2022-10-06T14:30:56.585Z,58.56
2022-10-06T14:33:26.517Z,58.45
2022-10-06T14:35:53.132Z,58.50
2022-10-06T14:38:20.383Z,58.62
2022-10-06T14:40:46.907Z,58.56
2022-10-06T14:43:13.465Z,58.79
2022-10-06T14:45:44.061Z,58.51
2022-10-06T14:48:11.850Z,58.91
2022-10-06T14:50:38.341Z,58.59
2022-10-06T14:53:05.494Z,58.71
2022-10-06T14:55:32.005Z,58.84
2022-10-06T14:57:58.494Z,58.37
2022-10-06T15:00:28.230Z,58.56
2022-10-06T15:02:56.258Z,58.70
2022-10-06T15:05:23.842Z,58.66
2022-10-06T15:08:09.647Z,58.47
2022-10-06T15:10:38.740Z,58.65
2022-10-06T15:13:08.363Z,58.63
2022-10-06T15:15:35.961Z,58.71
2022-10-06T15:18:03.634Z,59.02
2022-10-06T15:20:30.301Z,58.89
2022-10-06T15:22:57.223Z,58.94
2022-10-06T15:25:42.383Z,59.04
2022-10-06T15:28:31.551Z,58.97
2022-10-06T15:30:58.496Z,58.85
2022-10-06T15:33:28.197Z,58.87
2022-10-06T15:36:13.824Z,59.23
2022-10-06T15:38:40.326Z,58.76
2022-10-06T15:41:07.328Z,58.94
2022-10-06T15:43:53.759Z,59.14
2022-10-06T15:46:20.833Z,58.87
2022-10-06T15:48:47.633Z,58.78
2022-10-06T15:51:14.830Z,58.90
2022-10-06T15:53:45.246Z,59.00
2022-10-06T15:56:12.423Z,59.18
2022-10-06T15:58:39.676Z,58.88
2022-10-06T16:01:09.693Z,59.12
2022-10-06T16:03:41.096Z,59.24
2022-10-06T16:06:09.139Z,59.59
2022-10-06T16:08:35.934Z,59.33
2022-10-06T16:11:02.953Z,59.49
2022-10-06T16:13:29.448Z,59.49
2022-10-06T16:15:57.107Z,59.59
2022-10-06T16:18:24.019Z,59.59
2022-10-06T16:20:54.949Z,59.63
2022-10-06T16:23:22.863Z,59.71
2022-10-06T16:25:49.719Z,59.61
2022-10-06T16:28:16.504Z,59.77
2022-10-06T16:30:43.262Z,59.84
2022-10-06T16:33:09.905Z,59.71
2022-10-06T16:35:36.488Z,59.84
2022-10-06T16:38:04.120Z,59.91
2022-10-06T16:40:30.574Z,59.90
2022-10-06T16:42:57.067Z,59.82
2022-10-06T16:45:23.532Z,59.87
2022-10-06T16:47:50.114Z,59.98
2022-10-06T16:50:16.608Z,60.04
2022-10-06T16:52:43.267Z,60.09
2022-10-06T16:55:09.796Z,60.16
2022-10-06T16:57:36.272Z,60.10
2022-10-06T17:00:05.737Z,60.20
2022-10-06T17:02:34.000Z,60.29
2022-10-06T17:05:00.571Z,60.18
2022-10-06T17:07:27.102Z,60.40
2022-10-06T17:10:18.552Z,60.47
2022-10-06T17:12:40.480Z,60.54
2022-10-06T17:15:07.677Z,60.53
2022-10-06T17:17:34.430Z,60.57
2022-10-06T17:20:01.019Z,60.50
2022-10-06T17:22:27.530Z,60.50
2022-10-06T17:24:54.026Z,60.60
2022-10-06T17:27:20.599Z,60.77
2022-10-06T17:29:47.216Z,60.73
2022-10-06T17:32:14.885Z,60.78
2022-10-06T17:34:45.602Z,60.95
2022-10-06T17:37:12.556Z,60.92
2022-10-06T17:39:41.563Z,61.02
2022-10-06T17:42:13.653Z,61.00
2022-10-06T17:44:40.251Z,61.25
2022-10-06T17:47:07.362Z,61.02
2022-10-06T17:49:34.899Z,61.20
2022-10-06T17:52:04.473Z,61.24
2022-10-06T17:54:32.525Z,61.09
2022-10-06T17:56:59.768Z,61.21
2022-10-06T17:59:31.616Z,61.28
2022-10-06T18:02:01.493Z,61.43
2022-10-06T18:04:28.895Z,61.56
2022-10-06T18:06:55.670Z,61.48
2022-10-06T18:09:22.580Z,61.57
2022-10-06T18:11:54.550Z,61.55
2022-10-06T18:14:24.452Z,61.72
2022-10-06T18:16:57.498Z,61.57
2022-10-06T18:19:35.632Z,61.67
2022-10-06T18:22:04.808Z,61.71
2022-10-06T18:24:31.803Z,61.91
2022-10-06T18:27:00.073Z,61.98
2022-10-06T18:29:30.403Z,61.87
2022-10-06T18:32:09.140Z,61.94
2022-10-06T18:37:29.958Z,62.20
2022-10-06T18:39:57.376Z,62.07
2022-10-06T18:42:24.014Z,62.07
2022-10-06T18:45:08.791Z,62.13
2022-10-06T18:48:04.341Z,62.24
2022-10-06T18:50:32.197Z,62.47
2022-10-06T18:52:58.634Z,62.39
2022-10-06T18:55:26.272Z,62.38
2022-10-06T18:57:52.720Z,62.54
2022-10-06T19:00:19.118Z,62.50
2022-10-06T19:02:48.453Z,62.53
2022-10-06T19:05:17.157Z,62.51
2022-10-06T19:07:43.889Z,62.52
2022-10-06T19:10:10.761Z,62.67
2022-10-06T19:12:37.186Z,62.62
2022-10-06T19:15:03.984Z,62.60
2022-10-06T19:17:30.518Z,62.65
2022-10-06T19:19:57.051Z,62.74
2022-10-06T19:22:25.008Z,62.74
2022-10-06T19:24:52.125Z,62.77
2022-10-06T19:27:23.815Z,62.74
2022-10-06T19:29:54.217Z,62.89
2022-10-06T19:32:24.055Z,62.72
2022-10-06T19:34:50.588Z,62.75
2022-10-06T19:37:17.458Z,62.95
2022-10-06T19:39:46.621Z,63.04
2022-10-06T19:42:34.349Z,62.87
2022-10-06T19:45:01.011Z,62.99
2022-10-06T19:47:27.796Z,63.05
2022-10-06T19:49:58.286Z,62.77
2022-10-06T19:52:25.610Z,62.99
2022-10-06T19:54:52.282Z,63.12
2022-10-06T19:57:18.745Z,63.20
2022-10-06T19:59:45.142Z,63.07
2022-10-06T20:02:11.812Z,63.29
2022-10-06T20:04:39.499Z,63.27
2022-10-06T20:07:05.970Z,63.20
2022-10-06T20:09:32.549Z,63.40
2022-10-06T20:12:00.255Z,63.33
2022-10-06T20:14:27.250Z,63.21
2022-10-06T20:16:55.498Z,63.29
2022-10-06T20:19:23.431Z,63.37
2022-10-06T20:21:50.313Z,63.44
2022-10-06T20:24:24.850Z,63.54
2022-10-06T20:26:52.953Z,63.40
2022-10-06T20:29:23.988Z,63.55
2022-10-06T20:31:53.164Z,63.66
2022-10-06T20:34:24.872Z,63.47
2022-10-06T20:36:55.919Z,63.66
2022-10-06T20:39:42.197Z,63.64
2022-10-06T20:42:14.515Z,63.73
2022-10-06T20:44:42.249Z,63.63
2022-10-06T20:47:09.009Z,63.57
2022-10-06T20:49:35.769Z,63.66
2022-10-06T20:52:03.179Z,63.92
2022-10-06T20:54:36.073Z,63.78
2022-10-06T20:57:06.787Z,63.68
2022-10-06T20:59:36.713Z,63.77
2022-10-06T21:02:05.057Z,63.75
2022-10-06T21:04:32.155Z,63.69
2022-10-06T21:06:58.739Z,63.68
2022-10-06T21:09:25.348Z,63.84
2022-10-06T21:11:51.922Z,64.00
2022-10-06T21:14:18.652Z,64.03
2022-10-06T21:16:46.824Z,63.94
2022-10-06T21:19:16.023Z,63.87
2022-10-06T21:21:45.837Z,63.86
2022-10-06T21:24:12.388Z,64.04
2022-10-06T21:26:39.743Z,63.99
2022-10-06T21:29:07.311Z,63.94
2022-10-06T21:31:33.895Z,64.20
2022-10-06T21:34:01.462Z,64.11
2022-10-06T21:36:31.255Z,64.01
2022-10-06T21:38:58.762Z,64.29
2022-10-06T21:41:28.449Z,64.19
2022-10-06T21:44:00.779Z,64.03
2022-10-06T21:46:32.855Z,64.02
2022-10-06T21:49:00.942Z,64.17
2022-10-06T21:51:30.057Z,64.07
2022-10-06T21:53:58.076Z,64.32
2022-10-06T21:56:26.355Z,64.14
2022-10-06T21:58:55.680Z,64.31
2022-10-06T22:01:25.266Z,64.29
2022-10-06T22:03:52.166Z,64.32
2022-10-06T22:06:19.925Z,64.29
2022-10-06T22:08:47.395Z,64.28
2022-10-06T22:11:17.690Z,64.09
2022-10-06T22:13:47.697Z,64.26
2022-10-06T22:16:17.222Z,64.33
2022-10-06T22:18:43.796Z,64.49
2022-10-06T22:21:20.834Z,64.18
2022-10-06T22:23:53.077Z,64.51
2022-10-06T22:26:19.633Z,64.42
2022-10-06T22:28:48.713Z,64.52
2022-10-06T22:31:16.906Z,64.50
2022-10-06T22:33:44.859Z,64.45
2022-10-06T22:36:13.730Z,64.43
2022-10-06T22:38:40.595Z,64.39
2022-10-06T22:41:10.168Z,64.43
2022-10-06T22:43:37.069Z,64.50
2022-10-06T22:46:05.139Z,64.53
2022-10-06T22:48:31.874Z,64.68
2022-10-06T22:50:58.626Z,64.33
2022-10-06T22:53:28.147Z,64.47
2022-10-06T22:55:55.805Z,64.42
2022-10-06T22:58:22.780Z,64.22
2022-10-06T23:00:49.341Z,64.58
2022-10-06T23:03:17.342Z,64.59
2022-10-06T23:05:53.612Z,64.49
2022-10-06T23:08:20.126Z,64.79
2022-10-06T23:10:46.668Z,64.62
2022-10-06T23:13:13.494Z,64.65
2022-10-06T23:15:40.109Z,64.65
2022-10-06T23:18:08.225Z,64.70
2022-10-06T23:20:34.825Z,64.59
2022-10-06T23:23:01.347Z,64.64
2022-10-06T23:25:27.967Z,64.67
2022-10-06T23:27:54.491Z,64.83
2022-10-06T23:30:21.017Z,64.85
2022-10-06T23:32:47.519Z,64.95
2022-10-06T23:35:14.052Z,64.63
2022-10-06T23:37:40.644Z,64.87
2022-10-06T23:40:07.726Z,64.86
2022-10-06T23:42:34.297Z,64.78
2022-10-06T23:45:00.864Z,64.87
2022-10-06T23:47:27.355Z,64.90
2022-10-06T23:49:54.301Z,64.75
2022-10-06T23:52:20.812Z,64.71
2022-10-06T23:54:47.909Z,64.58
2022-10-06T23:57:14.468Z,64.73
2022-10-06T23:59:40.941Z,64.84
